Wetterdaten: aktuell Montag, 24.04.2017 21:00
Datum Zeit Temp. A. Feuchte A. Luftdruck Regen Wind Richtung Richtung Sonnenschein ET UV Solar Taupunkt Windchill Windben
24.04.2017 21:00 10,7 C 59 % 1009,6 hPa 0,0 l/m 0,0 km/h (0 Bft) W 271 5 min 0,050 mm 0,0 UV-I 0 W/m 3,0 C 10,7 C 0,0 km/h (0 Bft)
24.04.2017 20:00 13,4 C 49 % 1010,0 hPa 0,0 l/m 0,0 km/h (0 Bft) W 271 10 min 0,127 mm 0,0 UV-I 16 W/m 2,9 C 13,4 C 0,0 km/h (0 Bft)
24.04.2017 19:00 14,6 C 43 % 1010,3 hPa 0,0 l/m 2,3 km/h (1 Bft) W-SW 246 30 min 0,229 mm 0,0 UV-I 63 W/m 2,2 C 14,6 C 6,4 km/h (2 Bft)
24.04.2017 18:00 15,9 C 41 % 1010,8 hPa 0,0 l/m 2,2 km/h (1 Bft) W-SW 255 55 min 0,330 mm 0,9 UV-I 325 W/m 2,7 C 15,9 C 11,3 km/h (2 Bft)
24.04.2017 17:00 16,0 C 39 % 1011,6 hPa 0,0 l/m 3,6 km/h (1 Bft) SW 221 60 min 0,407 mm 1,7 UV-I 485 W/m 2,1 C 16,0 C 11,3 km/h (2 Bft)
24.04.2017 16:00 15,1 C 41 % 1012,6 hPa 0,0 l/m 5,1 km/h (1 Bft) W-SW 247 60 min 0,431 mm 2,7 UV-I 584 W/m 2,0 C 15,1 C 17,7 km/h (3 Bft)
24.04.2017 15:00 14,4 C 41 % 1013,7 hPa 0,0 l/m 9,0 km/h (2 Bft) S-SW 213 60 min 0,432 mm 4,0 UV-I 765 W/m 1,3 C 12,9 C 20,9 km/h (4 Bft)
24.04.2017 14:00 13,5 C 44 % 1014,8 hPa 0,0 l/m 6,5 km/h (2 Bft) W-SW 254 60 min 0,407 mm 4,6 UV-I 788 W/m 1,5 C 13,5 C 14,5 km/h (3 Bft)
24.04.2017 13:00 11,4 C 49 % 1016,0 hPa 0,0 l/m 7,1 km/h (2 Bft) SW 234 60 min 0,381 mm 5,1 UV-I 884 W/m 1,1 C 10,9 C 12,9 km/h (3 Bft)
24.04.2017 12:00 11,4 C 46 % 1017,1 hPa 0,0 l/m 5,4 km/h (1 Bft) W 274 60 min 0,203 mm 4,6 UV-I 788 W/m 0,2 C 11,4 C 14,5 km/h (3 Bft)
24.04.2017 11:00 10,7 C 50 % 1018,1 hPa 0,0 l/m 2,6 km/h (1 Bft) S 171 35 min 0,076 mm 3,6 UV-I 694 W/m 0,7 C 10,7 C 11,3 km/h (2 Bft)
24.04.2017 10:00 7,9 C 56 % 1018,8 hPa 0,0 l/m 7,6 km/h (2 Bft) W-SW 238 0 min 0,076 mm 1,6 UV-I 65 W/m -0,3 C 7,0 C 14,5 km/h (3 Bft)
24.04.2017 09:00 5,6 C 72 % 1019,6 hPa 0,0 l/m 2,9 km/h (1 Bft) S-SO 161 0 min 0,051 mm 1,1 UV-I 91 W/m 1,0 C 5,6 C 8,0 km/h (2 Bft)
24.04.2017 08:00 3,2 C 82 % 1020,1 hPa 0,0 l/m 1,0 km/h (0 Bft) SW 219 10 min 0,025 mm 0,7 UV-I 95 W/m 0,4 C 3,2 C 6,4 km/h (2 Bft)
24.04.2017 07:00 1,5 C 86 % 1020,3 hPa 0,0 l/m 0,0 km/h (0 Bft) S 184 10 min 0,001 mm 0,0 UV-I 62 W/m -0,6 C 1,5 C 1,6 km/h (1 Bft)
24.04.2017 06:00 0,3 C 87 % 1020,5 hPa 0,0 l/m 0,1 km/h (0 Bft) SW 225 0 min 0,000 mm 0,0 UV-I 0 W/m -1,6 C 0,3 C 3,2 km/h (1 Bft)
24.04.2017 05:00 0,7 C 84 % 1021,2 hPa 0,0 l/m 0,0 km/h (0 Bft) N 0 0 min 0,000 mm 0,0 UV-I 0 W/m -1,7 C 0,7 C 0,0 km/h (0 Bft)
24.04.2017 04:00 2,1 C 81 % 1021,6 hPa 0,0 l/m 0,0 km/h (0 Bft) SW 225 0 min 0,000 mm 0,0 UV-I 0 W/m -0,8 C 2,1 C 1,6 km/h (1 Bft)
24.04.2017 03:00 2,3 C 81 % 1022,1 hPa 0,0 l/m 0,0 km/h (0 Bft) SW 225 0 min 0,000 mm 0,0 UV-I 0 W/m -0,6 C 2,3 C 1,6 km/h (1 Bft)
24.04.2017 02:00 3,1 C 80 % 1022,4 hPa 0,0 l/m 0,0 km/h (0 Bft) SW 225 0 min 0,025 mm 0,0 UV-I 0 W/m -0,0 C 3,1 C 1,6 km/h (1 Bft)
24.04.2017 01:00 4,1 C 78 % 1022,7 hPa 0,0 l/m 0,0 km/h (0 Bft) W 270 0 min 0,025 mm 0,0 UV-I 0 W/m 0,6 C 4,1 C 1,6 km/h (1 Bft)
24.04.2017 00:00 5,2 C 76 % 1022,6 hPa 0,0 l/m 1,6 km/h (1 Bft) NW 315 0 min 0,025 mm 0,0 UV-I 0 W/m 1,3 C 5,2 C 6,4 km/h (2 Bft)
_ Min-Zeit 05:30 16:45 21:00 - 00:15 - - - - - - 05:25 05:25 00:55
Minimum _ -0,2 C 39 % 1009,6 hPa - 0,0 km/h (0 Bft) - - - - - - -2,3 C -0,1 C 0,0 km/h (0 Bft)
_ Max-Zeit 17:05 05:40 01:20 00:00 15:30 - - 06:10 14:05 13:00 13:25 20:55 17:00 12:40
Maximum _ 16,1 C 87 % 1022,8 hPa 0,0 l/m 10,8 km/h
NW (2 Bft)
- - 5 min 0,432 mm 5,1 UV-I 893 W/m 3,3 C 16,0 C 27,4 km/h
SW (4 Bft)
Durchschnitt _ 8,3 C 62 % 1017,2 hPa #0,0 l/m 2,8 km/h (1 Bft) SW - #8:35 h #3,200 mm 2,7 UV-I 399 W/m 0,8 C 8,2 C 8,3 km/h (2 Bft)